Time;durP1;ratioP1;P1;durP2;ratioP2;P2;SDS_P1;SDS_P2;PMS_P1;PMS_P2;Temp;Humidity;BMP_temperature;BMP_pressure;BME280_temperature;BME280_humidity;BME280_pressure;Samples;Min_cycle;Max_cycle;Signal;HPM_P1;HPM_P2
2022/12/11 00:00:33;;;;;;;;;;;1.30;99.90;;;;;;5092070;28;20460;-60
2022/12/11 00:02:59;;;;;;;;;;;1.30;99.90;;;;;;5091939;28;19916;-58
2022/12/11 00:05:24;;;;;;;;;;;1.30;99.90;;;;;;5091923;28;20293;-57
2022/12/11 00:07:49;;;;;;;;;;;1.20;99.90;;;;;;5091103;28;19974;-58
2022/12/11 00:10:15;;;;;;;;;;;1.20;99.90;;;;;;5086150;28;20006;-60
2022/12/11 00:12:40;;;;;;;;;;;1.30;99.90;;;;;;5092116;28;20385;-58
2022/12/11 00:15:06;;;;;;;;;;;1.20;99.90;;;;;;5091299;28;19975;-59
2022/12/11 00:17:32;;;;;;;;;;;1.30;99.90;;;;;;5089174;28;19912;-60
2022/12/11 00:19:57;;;;;;;;;;;1.20;99.90;;;;;;5092369;28;20231;-59
2022/12/11 00:22:22;;;;;;;;;;;1.20;99.90;;;;;;5089586;28;19939;-57
2022/12/11 00:24:48;;;;;;;;;;;1.20;99.90;;;;;;5091334;28;19912;-58
2022/12/11 00:27:13;;;;;;;;;;;1.20;99.90;;;;;;5090334;28;19935;-60
2022/12/11 00:29:39;;;;;;;;;;;1.20;99.90;;;;;;5085267;28;19935;-58
2022/12/11 00:32:05;;;;;;;;;;;1.10;99.90;;;;;;5092612;28;19912;-59
2022/12/11 00:34:30;;;;;;;;;;;1.10;99.90;;;;;;5092332;28;20519;-58
2022/12/11 00:36:57;;;;;;;;;;;1.10;99.90;;;;;;5086748;28;19912;-59
2022/12/11 00:39:23;;;;;;;;;;;1.10;99.90;;;;;;5091470;28;19912;-59
2022/12/11 00:41:48;;;;;;;;;;;1.10;99.90;;;;;;5089576;28;19912;-59
2022/12/11 00:44:14;;;;;;;;;;;1.10;99.90;;;;;;5089884;28;20274;-59
2022/12/11 00:46:39;;;;;;;;;;;1.20;99.90;;;;;;5084397;28;19912;-60
2022/12/11 00:49:05;;;;;;;;;;;1.20;99.90;;;;;;5088212;28;19919;-57
2022/12/11 00:51:30;;;;;;;;;;;1.20;99.90;;;;;;5084860;28;20300;-59
2022/12/11 00:53:56;;;;;;;;;;;1.10;99.90;;;;;;5088121;28;19934;-61
2022/12/11 00:56:21;;;;;;;;;;;1.20;99.90;;;;;;5091852;28;19912;-60
2022/12/11 00:58:47;;;;;;;;;;;1.10;99.90;;;;;;5091345;28;19916;-62
2022/12/11 01:01:14;;;;;;;;;;;1.10;99.90;;;;;;5088742;28;19952;-58
2022/12/11 01:03:40;;;;;;;;;;;1.10;99.90;;;;;;5087766;28;19958;-60
2022/12/11 01:06:06;;;;;;;;;;;1.10;99.90;;;;;;5091766;28;19956;-58
2022/12/11 01:08:31;;;;;;;;;;;1.10;99.90;;;;;;5089505;28;19916;-58
2022/12/11 01:11:04;;;;;;;;;;;1.20;99.90;;;;;;5090769;28;20033;-58
2022/12/11 01:13:30;;;;;;;;;;;1.20;99.90;;;;;;5092350;28;19912;-60
2022/12/11 01:15:55;;;;;;;;;;;1.20;99.90;;;;;;5090228;28;19912;-58
2022/12/11 01:18:21;;;;;;;;;;;1.20;99.90;;;;;;5069961;28;19919;-61
2022/12/11 01:20:46;;;;;;;;;;;1.20;99.90;;;;;;5088611;28;20053;-61
2022/12/11 01:23:12;;;;;;;;;;;1.30;99.90;;;;;;5088857;28;19916;-61
2022/12/11 01:25:38;;;;;;;;;;;1.20;99.90;;;;;;5090328;28;19912;-58
2022/12/11 01:28:04;;;;;;;;;;;1.20;99.90;;;;;;5089572;28;19919;-58
2022/12/11 01:30:29;;;;;;;;;;;1.20;99.90;;;;;;5052808;28;19919;-60
2022/12/11 01:32:55;;;;;;;;;;;1.20;99.90;;;;;;5090780;28;20011;-58
2022/12/11 01:35:20;;;;;;;;;;;1.10;99.90;;;;;;5088359;28;19920;-59
2022/12/11 01:37:46;;;;;;;;;;;1.20;99.90;;;;;;5071595;28;20406;-60
2022/12/11 01:40:13;;;;;;;;;;;1.20;99.90;;;;;;5090146;28;20376;-61
2022/12/11 01:42:38;;;;;;;;;;;1.20;99.90;;;;;;5090407;28;19916;-60
2022/12/11 01:45:24;;;;;;;;;;;1.20;99.90;;;;;;5070297;28;19923;-57
2022/12/11 01:48:02;;;;;;;;;;;1.30;99.90;;;;;;5084146;28;20005;-56
2022/12/11 01:50:29;;;;;;;;;;;1.30;99.90;;;;;;5091817;28;19912;-60
2022/12/11 01:52:55;;;;;;;;;;;1.30;99.90;;;;;;5087200;28;20445;-61
2022/12/11 01:55:21;;;;;;;;;;;1.30;99.90;;;;;;5086260;28;19912;-57
2022/12/11 01:57:48;;;;;;;;;;;1.30;99.90;;;;;;5087861;28;19927;-59
2022/12/11 02:00:14;;;;;;;;;;;1.30;99.90;;;;;;5088005;28;19920;-61
2022/12/11 02:02:39;;;;;;;;;;;1.30;99.90;;;;;;5088893;28;19912;-61
2022/12/11 02:05:05;;;;;;;;;;;1.30;99.90;;;;;;5084377;28;20021;-59
2022/12/11 02:07:36;;;;;;;;;;;1.30;99.90;;;;;;5084764;28;19916;-60
2022/12/11 02:10:01;;;;;;;;;;;1.20;99.90;;;;;;5087386;28;19951;-61
2022/12/11 02:12:27;;;;;;;;;;;1.20;99.90;;;;;;5088697;28;19948;-61
2022/12/11 02:14:59;;;;;;;;;;;1.20;99.90;;;;;;5083251;28;19985;-59
2022/12/11 02:17:28;;;;;;;;;;;1.20;99.90;;;;;;5067311;28;19912;-61
2022/12/11 02:20:26;;;;;;;;;;;1.20;99.90;;;;;;5088642;28;19926;-60
2022/12/11 02:23:06;;;;;;;;;;;1.20;99.90;;;;;;5050243;28;19942;-61
2022/12/11 02:25:43;;;;;;;;;;;1.20;99.90;;;;;;5088370;28;19912;-61
2022/12/11 02:28:28;;;;;;;;;;;1.20;99.90;;;;;;5097337;28;20011;-57
2022/12/11 02:30:57;;;;;;;;;;;1.20;99.90;;;;;;5084025;28;19912;-56
2022/12/11 02:33:33;;;;;;;;;;;1.10;99.90;;;;;;5088047;28;19916;-59
2022/12/11 02:35:59;;;;;;;;;;;1.10;99.90;;;;;;5089435;28;19961;-58
2022/12/11 02:38:28;;;;;;;;;;;1.10;99.90;;;;;;5083011;28;19912;-59
2022/12/11 02:40:55;;;;;;;;;;;1.10;99.90;;;;;;5069773;28;19916;-60
2022/12/11 02:43:22;;;;;;;;;;;1.10;99.90;;;;;;5088538;28;19923;-57
2022/12/11 02:45:49;;;;;;;;;;;1.10;99.90;;;;;;5064856;28;19999;-59
2022/12/11 02:48:15;;;;;;;;;;;1.10;99.90;;;;;;5067435;28;19912;-61
2022/12/11 02:50:42;;;;;;;;;;;1.10;99.90;;;;;;5087366;28;20569;-59
2022/12/11 02:53:09;;;;;;;;;;;1.10;99.90;;;;;;5086718;28;19912;-60
2022/12/11 02:55:35;;;;;;;;;;;1.10;99.90;;;;;;5069988;28;19919;-60
2022/12/11 02:58:03;;;;;;;;;;;1.10;99.90;;;;;;5087624;28;19924;-59
2022/12/11 03:00:28;;;;;;;;;;;1.10;99.90;;;;;;5084611;28;19920;-59
2022/12/11 03:02:54;;;;;;;;;;;1.10;99.90;;;;;;5092589;28;20027;-57
2022/12/11 03:05:19;;;;;;;;;;;1.20;99.90;;;;;;5059345;28;20386;-58
2022/12/11 03:07:45;;;;;;;;;;;1.20;99.90;;;;;;5093260;28;19916;-59
2022/12/11 03:10:13;;;;;;;;;;;1.20;99.90;;;;;;5087797;28;20347;-60
2022/12/11 03:12:40;;;;;;;;;;;1.20;99.90;;;;;;5087122;28;20325;-61
2022/12/11 03:15:08;;;;;;;;;;;1.10;99.90;;;;;;5090056;28;20278;-62
2022/12/11 03:17:34;;;;;;;;;;;1.20;99.90;;;;;;5091518;28;19920;-59
2022/12/11 03:20:14;;;;;;;;;;;1.20;99.90;;;;;;5090151;28;20278;-56
2022/12/11 03:22:42;;;;;;;;;;;1.20;99.90;;;;;;5092516;28;20376;-59
2022/12/11 03:25:14;;;;;;;;;;;1.20;99.90;;;;;;5089554;28;19969;-59
2022/12/11 03:27:46;;;;;;;;;;;1.20;99.90;;;;;;5089709;28;19912;-61
2022/12/11 03:30:14;;;;;;;;;;;1.30;99.90;;;;;;5086360;28;19919;-59
2022/12/11 03:32:48;;;;;;;;;;;1.20;99.90;;;;;;5086374;28;19987;-60
2022/12/11 03:35:18;;;;;;;;;;;1.30;99.90;;;;;;5089095;28;20025;-59
2022/12/11 03:37:46;;;;;;;;;;;1.30;99.90;;;;;;5087758;28;19916;-61
2022/12/11 03:40:15;;;;;;;;;;;1.20;99.90;;;;;;5087064;28;19912;-59
2022/12/11 03:42:42;;;;;;;;;;;1.20;99.90;;;;;;5093169;28;19912;-61
2022/12/11 03:45:08;;;;;;;;;;;1.20;99.90;;;;;;5090203;28;19934;-59
2022/12/11 03:47:33;;;;;;;;;;;1.20;99.90;;;;;;5088619;28;20377;-59
2022/12/11 03:50:01;;;;;;;;;;;1.30;99.90;;;;;;5087293;28;19913;-58
2022/12/11 03:52:28;;;;;;;;;;;1.20;99.90;;;;;;5089967;28;20313;-59
2022/12/11 03:54:57;;;;;;;;;;;1.10;99.90;;;;;;5089855;28;20003;-58
2022/12/11 03:57:25;;;;;;;;;;;1.10;99.90;;;;;;5090570;28;20388;-59
2022/12/11 03:59:51;;;;;;;;;;;1.10;99.90;;;;;;5082441;28;19912;-59
2022/12/11 04:02:16;;;;;;;;;;;1.10;99.90;;;;;;5088867;28;19912;-59
2022/12/11 04:04:42;;;;;;;;;;;1.10;99.90;;;;;;5073262;28;19970;-60
2022/12/11 04:07:07;;;;;;;;;;;1.20;99.90;;;;;;5087751;28;20348;-59
2022/12/11 04:09:33;;;;;;;;;;;1.20;99.90;;;;;;5084360;28;19920;-59
2022/12/11 04:11:59;;;;;;;;;;;1.30;99.90;;;;;;5091072;28;19912;-60
2022/12/11 04:17:08;;;;;;;;;;;1.40;99.90;;;;;;5091324;28;20380;-59
2022/12/11 04:25:03;;;;;;;;;;;1.40;99.90;;;;;;5086479;28;19926;-60
2022/12/11 04:30:14;;;;;;;;;;;1.40;99.90;;;;;;5087802;28;20023;-59
2022/12/11 04:32:39;;;;;;;;;;;1.40;99.90;;;;;;5089938;28;19952;-58
2022/12/11 04:35:06;;;;;;;;;;;1.20;99.90;;;;;;5089460;28;19997;-59
2022/12/11 04:37:32;;;;;;;;;;;1.20;99.90;;;;;;5084569;28;19961;-59
2022/12/11 04:39:57;;;;;;;;;;;1.30;99.90;;;;;;5089147;28;19912;-61
2022/12/11 04:42:23;;;;;;;;;;;1.20;99.90;;;;;;5090995;28;19926;-58
2022/12/11 04:44:48;;;;;;;;;;;1.20;99.90;;;;;;5090462;28;19916;-59
2022/12/11 04:47:14;;;;;;;;;;;1.20;99.90;;;;;;5089308;28;19912;-60
2022/12/11 04:49:39;;;;;;;;;;;1.20;99.90;;;;;;5089547;28;19913;-59
2022/12/11 04:52:05;;;;;;;;;;;1.20;99.90;;;;;;5083876;28;19916;-57
2022/12/11 04:54:30;;;;;;;;;;;1.20;99.90;;;;;;5088777;28;20403;-60
2022/12/11 04:56:56;;;;;;;;;;;1.20;99.90;;;;;;5089839;28;19924;-59
2022/12/11 04:59:21;;;;;;;;;;;1.20;99.90;;;;;;5090878;28;20377;-58
2022/12/11 05:01:47;;;;;;;;;;;1.10;99.90;;;;;;5091081;28;19916;-59
2022/12/11 05:04:12;;;;;;;;;;;1.10;99.90;;;;;;5088788;28;19920;-59
2022/12/11 05:06:38;;;;;;;;;;;1.10;99.90;;;;;;5085017;28;19927;-60
2022/12/11 05:09:03;;;;;;;;;;;1.10;99.90;;;;;;5084246;28;20331;-61
2022/12/11 05:11:29;;;;;;;;;;;1.00;99.90;;;;;;5099825;28;19917;-58
2022/12/11 05:13:54;;;;;;;;;;;1.00;99.90;;;;;;5093931;28;19916;-58
2022/12/11 05:16:20;;;;;;;;;;;1.00;99.90;;;;;;5066667;28;19912;-59
2022/12/11 05:18:46;;;;;;;;;;;1.10;99.90;;;;;;5091033;28;19965;-59
2022/12/11 05:21:12;;;;;;;;;;;1.10;99.90;;;;;;5087886;28;20392;-59
2022/12/11 05:23:38;;;;;;;;;;;1.20;99.90;;;;;;5088529;28;20331;-60
2022/12/11 05:26:05;;;;;;;;;;;1.20;99.90;;;;;;5088243;28;19942;-59
2022/12/11 05:28:32;;;;;;;;;;;1.20;99.90;;;;;;5088993;28;19912;-60
2022/12/11 05:31:06;;;;;;;;;;;1.20;99.90;;;;;;5082524;28;19976;-59
2022/12/11 05:33:31;;;;;;;;;;;1.10;99.90;;;;;;5083655;28;19919;-61
2022/12/11 05:35:57;;;;;;;;;;;1.10;99.90;;;;;;5089683;28;19916;-61
2022/12/11 05:38:22;;;;;;;;;;;1.10;99.90;;;;;;5090381;28;20334;-62
2022/12/11 05:40:55;;;;;;;;;;;1.00;99.90;;;;;;5086751;28;19958;-62
2022/12/11 05:43:20;;;;;;;;;;;1.10;99.90;;;;;;5082647;28;19912;-61
2022/12/11 05:45:45;;;;;;;;;;;1.10;99.90;;;;;;5089625;28;20504;-59
2022/12/11 05:48:11;;;;;;;;;;;1.20;99.90;;;;;;5088304;28;19912;-58
2022/12/11 05:50:36;;;;;;;;;;;1.10;99.90;;;;;;5088238;28;19947;-61
2022/12/11 05:53:03;;;;;;;;;;;1.10;99.90;;;;;;5091571;28;19914;-59
2022/12/11 05:55:28;;;;;;;;;;;1.10;99.90;;;;;;5085567;28;19920;-60
2022/12/11 05:57:54;;;;;;;;;;;1.10;99.90;;;;;;5087617;28;20029;-59
2022/12/11 06:00:19;;;;;;;;;;;1.00;99.90;;;;;;5088156;28;19977;-59
2022/12/11 06:02:46;;;;;;;;;;;1.00;99.90;;;;;;5086957;28;19916;-60
2022/12/11 06:05:11;;;;;;;;;;;1.00;99.90;;;;;;5088832;28;19919;-62
2022/12/11 06:07:37;;;;;;;;;;;1.00;99.90;;;;;;5089176;28;20323;-61
2022/12/11 06:10:02;;;;;;;;;;;1.00;99.90;;;;;;5085966;28;19969;-61
2022/12/11 06:12:28;;;;;;;;;;;1.00;99.90;;;;;;5082299;28;19927;-60
2022/12/11 06:14:54;;;;;;;;;;;1.00;99.90;;;;;;5089622;28;19961;-60
2022/12/11 06:17:19;;;;;;;;;;;1.00;99.90;;;;;;5086983;28;19916;-60
2022/12/11 06:19:45;;;;;;;;;;;1.10;99.90;;;;;;5088443;28;20433;-59
2022/12/11 06:22:10;;;;;;;;;;;1.00;99.90;;;;;;5088662;28;19966;-61
2022/12/11 06:24:36;;;;;;;;;;;1.00;99.90;;;;;;5083717;28;19916;-59
2022/12/11 06:27:01;;;;;;;;;;;1.00;99.90;;;;;;5087469;28;19908;-59
2022/12/11 06:29:27;;;;;;;;;;;1.00;99.90;;;;;;5088871;28;20016;-63
2022/12/11 06:31:52;;;;;;;;;;;1.10;99.90;;;;;;5088716;28;19908;-60
2022/12/11 06:34:18;;;;;;;;;;;1.10;99.90;;;;;;5086782;28;19916;-62
2022/12/11 06:36:43;;;;;;;;;;;1.20;99.90;;;;;;5087500;28;19961;-58
2022/12/11 06:39:08;;;;;;;;;;;1.20;99.90;;;;;;5086703;28;19912;-58
2022/12/11 06:41:34;;;;;;;;;;;1.20;99.90;;;;;;5086637;28;20333;-60
2022/12/11 06:43:59;;;;;;;;;;;1.10;99.90;;;;;;5083711;28;20042;-57
2022/12/11 06:46:25;;;;;;;;;;;1.10;99.90;;;;;;5088906;28;19915;-59
2022/12/11 06:48:50;;;;;;;;;;;1.10;99.90;;;;;;5088127;28;19981;-61
2022/12/11 06:51:17;;;;;;;;;;;1.00;99.90;;;;;;5086807;28;19916;-58
2022/12/11 06:53:43;;;;;;;;;;;1.00;99.90;;;;;;5089426;28;20002;-62
2022/12/11 06:56:10;;;;;;;;;;;1.20;99.90;;;;;;5087481;28;20015;-60
2022/12/11 06:58:36;;;;;;;;;;;1.20;99.90;;;;;;5087272;28;20400;-57
2022/12/11 07:01:02;;;;;;;;;;;1.20;99.90;;;;;;5086872;28;19912;-59
2022/12/11 07:03:28;;;;;;;;;;;1.10;99.90;;;;;;5087031;28;19920;-59
2022/12/11 07:05:58;;;;;;;;;;;1.00;99.90;;;;;;5088073;28;19922;-62
2022/12/11 07:08:23;;;;;;;;;;;1.10;99.90;;;;;;5088715;28;19929;-58
2022/12/11 07:10:49;;;;;;;;;;;1.20;99.90;;;;;;5088791;28;20386;-60
2022/12/11 07:13:14;;;;;;;;;;;1.10;99.90;;;;;;5088942;28;20335;-60
2022/12/11 07:15:39;;;;;;;;;;;1.20;99.90;;;;;;5084773;28;19923;-58
2022/12/11 07:18:05;;;;;;;;;;;1.10;99.90;;;;;;5087688;28;19928;-58
2022/12/11 07:20:30;;;;;;;;;;;1.10;99.90;;;;;;5089014;28;19965;-58
2022/12/11 07:22:56;;;;;;;;;;;1.00;99.90;;;;;;5087264;28;19924;-58
2022/12/11 07:25:21;;;;;;;;;;;1.00;99.90;;;;;;5084090;28;19916;-59
2022/12/11 07:27:47;;;;;;;;;;;0.90;99.90;;;;;;5081240;28;19913;-61
2022/12/11 07:30:12;;;;;;;;;;;0.90;99.90;;;;;;5087707;28;19912;-58
2022/12/11 07:32:38;;;;;;;;;;;0.90;99.90;;;;;;5082615;28;20298;-59
2022/12/11 07:35:04;;;;;;;;;;;0.90;99.90;;;;;;5086534;28;20077;-59
2022/12/11 07:37:29;;;;;;;;;;;0.90;99.90;;;;;;5088772;28;19919;-59
2022/12/11 07:39:54;;;;;;;;;;;0.90;99.90;;;;;;5083732;28;19920;-59
2022/12/11 07:42:20;;;;;;;;;;;1.00;99.90;;;;;;5088815;28;19993;-59
2022/12/11 07:44:45;;;;;;;;;;;1.20;99.90;;;;;;5085754;28;20279;-55
2022/12/11 07:47:11;;;;;;;;;;;1.30;99.90;;;;;;5092663;28;19935;-60
2022/12/11 07:49:37;;;;;;;;;;;1.30;99.90;;;;;;5091056;28;19912;-59
2022/12/11 07:52:02;;;;;;;;;;;1.20;99.90;;;;;;5088153;28;19919;-62
2022/12/11 07:54:28;;;;;;;;;;;1.20;99.90;;;;;;5099191;28;20683;-59
2022/12/11 07:56:53;;;;;;;;;;;1.30;99.90;;;;;;5093284;28;20006;-59
2022/12/11 07:59:19;;;;;;;;;;;1.30;99.90;;;;;;5087243;28;20305;-61
2022/12/11 08:01:45;;;;;;;;;;;1.30;99.90;;;;;;5090204;28;19999;-64
2022/12/11 08:04:14;;;;;;;;;;;1.40;99.90;;;;;;5093570;28;20012;-60
2022/12/11 08:06:40;;;;;;;;;;;1.50;99.90;;;;;;5091226;28;20278;-62
2022/12/11 08:09:06;;;;;;;;;;;1.50;99.90;;;;;;5086976;28;19909;-61
2022/12/11 08:11:32;;;;;;;;;;;1.60;99.90;;;;;;5083354;28;19912;-65
2022/12/11 08:13:58;;;;;;;;;;;1.50;99.90;;;;;;5090565;28;20423;-62
2022/12/11 08:16:24;;;;;;;;;;;1.30;99.90;;;;;;5091232;28;19916;-60
2022/12/11 08:18:49;;;;;;;;;;;1.30;99.90;;;;;;5092803;28;19974;-62
2022/12/11 08:21:15;;;;;;;;;;;1.30;99.90;;;;;;5082162;28;19912;-58
2022/12/11 08:23:40;;;;;;;;;;;1.20;99.90;;;;;;5088450;28;19926;-61
2022/12/11 08:26:08;;;;;;;;;;;1.20;99.90;;;;;;5088733;28;19916;-57
2022/12/11 08:28:34;;;;;;;;;;;1.20;99.90;;;;;;5089989;28;19978;-55
2022/12/11 08:31:02;;;;;;;;;;;1.20;99.90;;;;;;5069209;28;19912;-59
2022/12/11 08:33:27;;;;;;;;;;;1.30;99.90;;;;;;5080930;28;19924;-57
2022/12/11 08:35:53;;;;;;;;;;;1.30;99.90;;;;;;5091421;28;19961;-60
2022/12/11 08:38:19;;;;;;;;;;;1.30;99.90;;;;;;5090692;28;19966;-55
2022/12/11 08:40:44;;;;;;;;;;;1.40;99.90;;;;;;5088540;28;19916;-61
2022/12/11 08:43:09;;;;;;;;;;;1.40;99.90;;;;;;5065071;28;19916;-61
2022/12/11 08:45:35;;;;;;;;;;;1.40;99.90;;;;;;5089659;28;19920;-58
2022/12/11 08:48:00;;;;;;;;;;;1.40;99.90;;;;;;5084665;28;20373;-58
2022/12/11 08:50:26;;;;;;;;;;;1.40;99.90;;;;;;5080538;28;19917;-58
2022/12/11 08:52:52;;;;;;;;;;;1.40;99.90;;;;;;5088036;28;19919;-58
2022/12/11 08:55:18;;;;;;;;;;;1.40;99.90;;;;;;5086759;28;20003;-58
2022/12/11 08:57:44;;;;;;;;;;;1.40;99.90;;;;;;5086368;28;20007;-60
2022/12/11 09:00:11;;;;;;;;;;;1.40;99.90;;;;;;5080992;28;20018;-56
2022/12/11 09:02:37;;;;;;;;;;;1.40;99.90;;;;;;5089823;28;20483;-60
2022/12/11 09:05:06;;;;;;;;;;;1.40;99.90;;;;;;5089573;28;19986;-58
2022/12/11 09:07:35;;;;;;;;;;;1.40;99.90;;;;;;5082425;28;19951;-59
2022/12/11 09:10:01;;;;;;;;;;;1.50;99.90;;;;;;5087518;28;19942;-59
2022/12/11 09:12:27;;;;;;;;;;;1.50;99.90;;;;;;5088598;28;20282;-58
2022/12/11 09:14:53;;;;;;;;;;;1.50;99.90;;;;;;5082054;28;20125;-61
2022/12/11 09:17:18;;;;;;;;;;;1.50;99.90;;;;;;5064565;28;20385;-58
2022/12/11 09:19:44;;;;;;;;;;;1.50;99.90;;;;;;5080110;28;20056;-60
2022/12/11 09:22:10;;;;;;;;;;;1.50;99.90;;;;;;5085446;28;19958;-58
2022/12/11 09:24:36;;;;;;;;;;;1.60;99.90;;;;;;5086223;28;19916;-60
2022/12/11 09:27:02;;;;;;;;;;;1.50;99.90;;;;;;5086660;28;19927;-56
2022/12/11 09:29:27;;;;;;;;;;;1.40;99.90;;;;;;5085657;28;20390;-60
2022/12/11 09:31:52;;;;;;;;;;;1.50;99.90;;;;;;5081249;28;19916;-58
2022/12/11 09:34:19;;;;;;;;;;;1.60;99.90;;;;;;5087604;28;19916;-60
2022/12/11 09:36:44;;;;;;;;;;;1.60;99.90;;;;;;5088544;28;20003;-59
2022/12/11 09:39:11;;;;;;;;;;;1.60;99.90;;;;;;5080789;28;20034;-57
2022/12/11 09:41:38;;;;;;;;;;;1.60;99.90;;;;;;5085937;28;20366;-58
2022/12/11 09:44:03;;;;;;;;;;;1.60;99.90;;;;;;5085689;28;20175;-58
2022/12/11 09:46:31;;;;;;;;;;;1.60;99.90;;;;;;5088052;28;19946;-58
2022/12/11 09:48:56;;;;;;;;;;;1.60;99.90;;;;;;5088338;28;19916;-57
2022/12/11 09:51:48;;;;;;;;;;;1.70;99.90;;;;;;5085249;28;20009;-58
2022/12/11 09:54:14;;;;;;;;;;;1.60;99.90;;;;;;5089985;28;19972;-59
2022/12/11 09:56:57;;;;;;;;;;;1.60;99.90;;;;;;5090132;28;19920;-55
2022/12/11 09:59:28;;;;;;;;;;;1.60;99.90;;;;;;5087247;28;19912;-59
2022/12/11 10:02:00;;;;;;;;;;;1.70;99.90;;;;;;5085901;28;20417;-59
2022/12/11 10:04:36;;;;;;;;;;;1.70;99.90;;;;;;5089207;28;19916;-55
2022/12/11 10:07:02;;;;;;;;;;;1.70;99.90;;;;;;5087553;28;19962;-58
2022/12/11 10:09:34;;;;;;;;;;;1.70;99.90;;;;;;5085276;28;20591;-56
2022/12/11 10:12:09;;;;;;;;;;;1.70;99.90;;;;;;5089325;28;19935;-58
2022/12/11 10:14:42;;;;;;;;;;;1.70;99.90;;;;;;5088372;28;19916;-59
2022/12/11 10:17:10;;;;;;;;;;;1.70;99.90;;;;;;5086866;28;19927;-61
2022/12/11 10:19:36;;;;;;;;;;;1.80;99.90;;;;;;5079657;28;20003;-62
2022/12/11 10:22:02;;;;;;;;;;;1.90;99.90;;;;;;5085191;28;20409;-59
2022/12/11 10:24:34;;;;;;;;;;;1.80;99.90;;;;;;5054980;28;20019;-59
2022/12/11 10:27:09;;;;;;;;;;;1.80;99.90;;;;;;5077309;28;19913;-57
2022/12/11 10:29:34;;;;;;;;;;;1.80;99.90;;;;;;5084164;28;19950;-61
2022/12/11 10:32:00;;;;;;;;;;;1.70;99.90;;;;;;5091199;28;19973;-59
2022/12/11 10:34:33;;;;;;;;;;;1.70;99.90;;;;;;5090807;28;19916;-59
2022/12/11 10:36:59;;;;;;;;;;;1.80;99.90;;;;;;5087987;28;19912;-59
2022/12/11 10:39:25;;;;;;;;;;;1.80;99.90;;;;;;5088463;28;20004;-59
2022/12/11 10:41:54;;;;;;;;;;;1.80;99.90;;;;;;5090593;28;19947;-59
2022/12/11 10:44:25;;;;;;;;;;;1.80;99.90;;;;;;5087951;28;19924;-56
2022/12/11 10:46:59;;;;;;;;;;;1.90;99.90;;;;;;5089584;28;19912;-58
2022/12/11 10:49:26;;;;;;;;;;;1.90;99.90;;;;;;5089102;28;19912;-58
2022/12/11 10:51:53;;;;;;;;;;;1.90;99.90;;;;;;5065187;28;20393;-58
2022/12/11 10:54:28;;;;;;;;;;;1.90;99.90;;;;;;5079600;28;20005;-56
2022/12/11 10:56:54;;;;;;;;;;;1.90;99.90;;;;;;5070500;28;19920;-61
2022/12/11 10:59:23;;;;;;;;;;;1.80;99.90;;;;;;5085045;28;19912;-55
2022/12/11 11:01:48;;;;;;;;;;;1.90;99.90;;;;;;5086473;28;19919;-54
2022/12/11 11:04:17;;;;;;;;;;;2.00;99.90;;;;;;5062097;28;19920;-59
2022/12/11 11:06:43;;;;;;;;;;;2.00;99.90;;;;;;5080971;28;19912;-54
2022/12/11 11:09:28;;;;;;;;;;;1.90;99.90;;;;;;5072653;28;19923;-56
2022/12/11 11:11:53;;;;;;;;;;;2.00;99.90;;;;;;5085329;28;19913;-58
2022/12/11 11:14:19;;;;;;;;;;;1.90;99.90;;;;;;5086773;28;19918;-59
2022/12/11 11:16:46;;;;;;;;;;;1.90;99.90;;;;;;5082782;28;20391;-58
2022/12/11 11:19:21;;;;;;;;;;;2.00;99.90;;;;;;5095646;28;19912;-55
2022/12/11 11:22:06;;;;;;;;;;;2.00;99.90;;;;;;5088024;28;19924;-54
2022/12/11 11:24:37;;;;;;;;;;;2.10;99.90;;;;;;5095409;28;19940;-57
2022/12/11 11:27:11;;;;;;;;;;;2.20;99.90;;;;;;5091840;28;19962;-57
2022/12/11 11:29:36;;;;;;;;;;;2.20;99.90;;;;;;5067894;28;19956;-56
2022/12/11 11:32:13;;;;;;;;;;;2.40;99.90;;;;;;5089955;28;19993;-61
2022/12/11 11:37:21;;;;;;;;;;;2.30;99.90;;;;;;5026404;28;19936;-60
2022/12/11 11:39:49;;;;;;;;;;;2.10;99.90;;;;;;5009041;28;19964;-60
2022/12/11 11:42:19;;;;;;;;;;;2.20;99.90;;;;;;5018075;28;19913;-60
2022/12/11 11:44:48;;;;;;;;;;;2.40;99.90;;;;;;5031418;28;19928;-58
2022/12/11 11:47:16;;;;;;;;;;;2.40;99.90;;;;;;5010612;28;20438;-59
2022/12/11 11:49:46;;;;;;;;;;;2.40;99.90;;;;;;5030967;28;20004;-60
2022/12/11 11:52:14;;;;;;;;;;;2.40;99.90;;;;;;5029704;28;19913;-61
2022/12/11 11:54:45;;;;;;;;;;;2.40;99.90;;;;;;5030122;28;19919;-60
2022/12/11 11:57:30;;;;;;;;;;;2.50;99.90;;;;;;5033242;28;19913;-61
2022/12/11 11:59:58;;;;;;;;;;;2.60;99.90;;;;;;5032642;28;19928;-60
2022/12/11 12:02:23;;;;;;;;;;;2.70;99.90;;;;;;5032566;28;20282;-61
2022/12/11 12:04:50;;;;;;;;;;;2.80;99.90;;;;;;5034044;28;19917;-62
2022/12/11 12:07:22;;;;;;;;;;;2.60;99.90;;;;;;5033746;28;19952;-63
2022/12/11 12:10:11;;;;;;;;;;;2.50;99.90;;;;;;5035892;28;19914;-64
2022/12/11 12:12:37;;;;;;;;;;;2.40;99.90;;;;;;5003251;28;19921;-62
2022/12/11 12:15:12;;;;;;;;;;;2.40;99.90;;;;;;5033562;28;19959;-62
2022/12/11 12:17:45;;;;;;;;;;;2.50;99.90;;;;;;5027494;28;19945;-62
2022/12/11 12:20:16;;;;;;;;;;;2.60;99.90;;;;;;5029834;28;19967;-62
2022/12/11 12:23:00;;;;;;;;;;;2.60;99.90;;;;;;5038337;28;19939;-61
2022/12/11 12:25:38;;;;;;;;;;;2.60;99.90;;;;;;5034018;28;19921;-62
2022/12/11 12:28:03;;;;;;;;;;;2.60;99.90;;;;;;5029881;28;20012;-65
2022/12/11 12:30:35;;;;;;;;;;;2.80;99.90;;;;;;5017485;28;19917;-63
2022/12/11 12:33:34;;;;;;;;;;;2.90;99.90;;;;;;5027012;28;19921;-63
2022/12/11 12:35:59;;;;;;;;;;;3.00;99.90;;;;;;4970819;28;19921;-62
2022/12/11 12:38:27;;;;;;;;;;;3.10;99.90;;;;;;5010356;28;19920;-60
2022/12/11 12:41:13;;;;;;;;;;;3.00;99.90;;;;;;5012432;28;19913;-63
2022/12/11 12:43:46;;;;;;;;;;;2.90;99.90;;;;;;5017287;28;20011;-64
2022/12/11 12:46:30;;;;;;;;;;;2.80;99.90;;;;;;5009203;28;20382;-63
2022/12/11 12:48:57;;;;;;;;;;;2.80;99.90;;;;;;5015973;28;19914;-63
2022/12/11 12:51:24;;;;;;;;;;;2.90;99.90;;;;;;5011859;28;19914;-63
2022/12/11 12:53:54;;;;;;;;;;;2.90;99.90;;;;;;5012078;28;19917;-62
2022/12/11 12:56:20;;;;;;;;;;;2.90;99.90;;;;;;5011095;28;19913;-60
2022/12/11 12:58:46;;;;;;;;;;;3.00;99.90;;;;;;5010856;28;21228;-62
2022/12/11 13:01:11;;;;;;;;;;;3.10;99.90;;;;;;5011560;28;19917;-62
2022/12/11 13:03:49;;;;;;;;;;;3.10;99.90;;;;;;5020190;28;20375;-63
2022/12/11 13:06:26;;;;;;;;;;;3.00;99.90;;;;;;5012536;28;20303;-61
2022/12/11 13:08:52;;;;;;;;;;;3.00;99.90;;;;;;5012308;28;20000;-61
2022/12/11 13:11:18;;;;;;;;;;;3.10;99.90;;;;;;5009720;28;20362;-62
2022/12/11 13:13:59;;;;;;;;;;;2.90;99.90;;;;;;5016606;28;19913;-59
2022/12/11 13:16:26;;;;;;;;;;;2.90;99.90;;;;;;5011636;28;19979;-61
2022/12/11 13:18:52;;;;;;;;;;;2.80;99.90;;;;;;5009979;28;20013;-61
2022/12/11 13:21:28;;;;;;;;;;;2.70;99.90;;;;;;4996355;28;19913;-62
2022/12/11 13:23:54;;;;;;;;;;;2.80;99.90;;;;;;5002253;28;19924;-63
2022/12/11 13:26:27;;;;;;;;;;;2.80;99.90;;;;;;5011254;28;19944;-62
2022/12/11 13:28:53;;;;;;;;;;;2.80;99.90;;;;;;5011874;28;19913;-62
2022/12/11 13:31:18;;;;;;;;;;;2.70;99.90;;;;;;4996057;28;19936;-64
2022/12/11 13:33:57;;;;;;;;;;;2.90;99.90;;;;;;5010374;28;19917;-68
2022/12/11 13:36:28;;;;;;;;;;;2.90;99.90;;;;;;5005469;28;20276;-64
2022/12/11 13:38:55;;;;;;;;;;;3.00;99.90;;;;;;5028964;28;19919;-64
2022/12/11 13:41:21;;;;;;;;;;;3.00;99.90;;;;;;5010341;28;19928;-64
2022/12/11 13:43:48;;;;;;;;;;;2.90;99.90;;;;;;5027361;28;19917;-63
2022/12/11 13:46:18;;;;;;;;;;;2.90;99.90;;;;;;5028013;28;19944;-64
2022/12/11 13:48:53;;;;;;;;;;;2.80;99.90;;;;;;5012840;28;19939;-65
2022/12/11 13:51:19;;;;;;;;;;;2.90;99.90;;;;;;5031472;28;20384;-64
2022/12/11 13:53:45;;;;;;;;;;;2.90;99.90;;;;;;5035112;28;19919;-64
2022/12/11 13:56:19;;;;;;;;;;;2.90;99.90;;;;;;5029869;28;20004;-64
2022/12/11 13:58:45;;;;;;;;;;;2.80;99.90;;;;;;5009251;28;20271;-64
2022/12/11 14:01:21;;;;;;;;;;;2.80;99.90;;;;;;5029144;28;19913;-64
2022/12/11 14:03:51;;;;;;;;;;;2.70;99.90;;;;;;5021833;28;19918;-64
2022/12/11 14:06:17;;;;;;;;;;;2.70;99.90;;;;;;5027016;28;20003;-62
2022/12/11 14:08:45;;;;;;;;;;;2.70;99.90;;;;;;5030498;28;20024;-63
2022/12/11 14:11:17;;;;;;;;;;;2.70;99.90;;;;;;5024798;28;19917;-64
2022/12/11 14:13:44;;;;;;;;;;;2.60;99.90;;;;;;5014008;28;19913;-63
2022/12/11 14:16:18;;;;;;;;;;;2.60;99.90;;;;;;5028603;28;20445;-62
2022/12/11 14:18:43;;;;;;;;;;;2.60;99.90;;;;;;5021327;28;19913;-63
2022/12/11 14:21:16;;;;;;;;;;;2.60;99.90;;;;;;5031657;28;19909;-64
2022/12/11 14:23:49;;;;;;;;;;;2.70;99.90;;;;;;5020959;28;19917;-64
2022/12/11 14:26:22;;;;;;;;;;;2.70;99.90;;;;;;5031375;28;19974;-63
2022/12/11 14:28:48;;;;;;;;;;;2.70;99.90;;;;;;5035300;28;19952;-62
2022/12/11 14:31:15;;;;;;;;;;;2.70;99.90;;;;;;5029296;28;19968;-63
2022/12/11 14:33:45;;;;;;;;;;;2.70;99.90;;;;;;5029765;28;19917;-62
2022/12/11 14:36:12;;;;;;;;;;;2.60;99.90;;;;;;5035026;28;19928;-63
2022/12/11 14:38:51;;;;;;;;;;;2.60;99.90;;;;;;5031660;28;19909;-61
2022/12/11 14:41:32;;;;;;;;;;;2.60;99.90;;;;;;5030137;28;19920;-62
2022/12/11 14:43:59;;;;;;;;;;;2.50;99.90;;;;;;5030993;28;19917;-63
2022/12/11 14:46:35;;;;;;;;;;;2.50;99.90;;;;;;5027181;28;20298;-64
2022/12/11 14:49:02;;;;;;;;;;;2.50;99.90;;;;;;5024441;28;19961;-63